sensor_id;sensor_type;location;lat;lon;timestamp;P1;durP1;ratioP1;P2;durP2;ratioP2
49376;SDS011;35253;34.688;33.040;2023-05-09T00:02:06;7.25;;;4.95;;
49376;SDS011;35253;34.688;33.040;2023-05-09T00:04:32;7.55;;;3.78;;
49376;SDS011;35253;34.688;33.040;2023-05-09T00:06:58;6.32;;;3.85;;
49376;SDS011;35253;34.688;33.040;2023-05-09T00:09:24;5.57;;;4.28;;
49376;SDS011;35253;34.688;33.040;2023-05-09T00:11:49;5.32;;;3.63;;
49376;SDS011;35253;34.688;33.040;2023-05-09T00:14:15;7.30;;;3.38;;
49376;SDS011;35253;34.688;33.040;2023-05-09T00:16:43;5.00;;;3.30;;
49376;SDS011;35253;34.688;33.040;2023-05-09T00:19:09;6.65;;;4.28;;
49376;SDS011;35253;34.688;33.040;2023-05-09T00:21:35;3.67;;;3.05;;
49376;SDS011;35253;34.688;33.040;2023-05-09T00:24:01;6.95;;;3.20;;
49376;SDS011;35253;34.688;33.040;2023-05-09T00:26:26;6.28;;;3.30;;
49376;SDS011;35253;34.688;33.040;2023-05-09T00:28:52;7.97;;;2.75;;
49376;SDS011;35253;34.688;33.040;2023-05-09T00:31:18;5.47;;;2.40;;
49376;SDS011;35253;34.688;33.040;2023-05-09T00:33:44;5.43;;;2.53;;
49376;SDS011;35253;34.688;33.040;2023-05-09T00:36:10;6.05;;;3.30;;
49376;SDS011;35253;34.688;33.040;2023-05-09T00:38:36;4.85;;;2.70;;
49376;SDS011;35253;34.688;33.040;2023-05-09T00:41:02;6.07;;;2.70;;
49376;SDS011;35253;34.688;33.040;2023-05-09T00:43:28;6.05;;;2.92;;
49376;SDS011;35253;34.688;33.040;2023-05-09T00:45:54;3.85;;;3.45;;
49376;SDS011;35253;34.688;33.040;2023-05-09T00:48:20;5.03;;;3.03;;
49376;SDS011;35253;34.688;33.040;2023-05-09T00:50:46;4.57;;;2.97;;
49376;SDS011;35253;34.688;33.040;2023-05-09T00:53:17;4.00;;;3.22;;
49376;SDS011;35253;34.688;33.040;2023-05-09T00:55:44;4.72;;;3.13;;
49376;SDS011;35253;34.688;33.040;2023-05-09T00:58:10;7.10;;;4.82;;
49376;SDS011;35253;34.688;33.040;2023-05-09T01:00:36;5.40;;;3.67;;
49376;SDS011;35253;34.688;33.040;2023-05-09T01:03:02;6.68;;;3.65;;
49376;SDS011;35253;34.688;33.040;2023-05-09T01:05:31;6.50;;;4.00;;
49376;SDS011;35253;34.688;33.040;2023-05-09T01:08:20;5.07;;;3.70;;
49376;SDS011;35253;34.688;33.040;2023-05-09T01:11:11;5.25;;;4.10;;
49376;SDS011;35253;34.688;33.040;2023-05-09T01:13:46;5.10;;;3.85;;
49376;SDS011;35253;34.688;33.040;2023-05-09T01:16:25;7.65;;;4.63;;
49376;SDS011;35253;34.688;33.040;2023-05-09T01:19:00;5.05;;;4.03;;
49376;SDS011;35253;34.688;33.040;2023-05-09T01:21:34;6.53;;;3.78;;
49376;SDS011;35253;34.688;33.040;2023-05-09T01:27:27;5.63;;;4.90;;
49376;SDS011;35253;34.688;33.040;2023-05-09T01:30:02;6.57;;;3.78;;
49376;SDS011;35253;34.688;33.040;2023-05-09T01:32:29;5.03;;;4.43;;
49376;SDS011;35253;34.688;33.040;2023-05-09T01:35:01;5.47;;;4.43;;
49376;SDS011;35253;34.688;33.040;2023-05-09T01:37:30;5.97;;;4.15;;
49376;SDS011;35253;34.688;33.040;2023-05-09T01:43:03;5.78;;;4.20;;
49376;SDS011;35253;34.688;33.040;2023-05-09T01:45:31;6.63;;;4.65;;
49376;SDS011;35253;34.688;33.040;2023-05-09T01:47:58;11.15;;;6.05;;
49376;SDS011;35253;34.688;33.040;2023-05-09T01:50:25;6.82;;;3.88;;
49376;SDS011;35253;34.688;33.040;2023-05-09T01:52:54;6.00;;;3.50;;
49376;SDS011;35253;34.688;33.040;2023-05-09T01:55:21;4.22;;;3.83;;
49376;SDS011;35253;34.688;33.040;2023-05-09T01:57:52;4.18;;;3.85;;
49376;SDS011;35253;34.688;33.040;2023-05-09T02:00:18;6.05;;;3.97;;
49376;SDS011;35253;34.688;33.040;2023-05-09T02:02:45;6.88;;;4.00;;
49376;SDS011;35253;34.688;33.040;2023-05-09T02:05:11;4.57;;;4.18;;
49376;SDS011;35253;34.688;33.040;2023-05-09T02:07:39;6.75;;;4.28;;
49376;SDS011;35253;34.688;33.040;2023-05-09T02:10:06;8.77;;;4.38;;
49376;SDS011;35253;34.688;33.040;2023-05-09T02:12:33;6.68;;;4.47;;
49376;SDS011;35253;34.688;33.040;2023-05-09T02:14:59;5.28;;;3.92;;
49376;SDS011;35253;34.688;33.040;2023-05-09T02:17:25;6.10;;;3.72;;
49376;SDS011;35253;34.688;33.040;2023-05-09T02:19:55;4.80;;;4.03;;
49376;SDS011;35253;34.688;33.040;2023-05-09T02:22:21;5.32;;;3.90;;
49376;SDS011;35253;34.688;33.040;2023-05-09T02:24:47;5.45;;;4.30;;
49376;SDS011;35253;34.688;33.040;2023-05-09T02:27:13;6.93;;;5.28;;
49376;SDS011;35253;34.688;33.040;2023-05-09T02:29:44;7.38;;;4.10;;
49376;SDS011;35253;34.688;33.040;2023-05-09T02:32:19;5.07;;;3.85;;
49376;SDS011;35253;34.688;33.040;2023-05-09T02:34:47;7.53;;;3.53;;
49376;SDS011;35253;34.688;33.040;2023-05-09T02:37:16;7.85;;;4.13;;
49376;SDS011;35253;34.688;33.040;2023-05-09T02:39:42;10.23;;;3.45;;
49376;SDS011;35253;34.688;33.040;2023-05-09T02:42:09;5.57;;;3.53;;
49376;SDS011;35253;34.688;33.040;2023-05-09T02:44:35;6.38;;;3.42;;
49376;SDS011;35253;34.688;33.040;2023-05-09T02:47:04;4.18;;;3.42;;
49376;SDS011;35253;34.688;33.040;2023-05-09T02:49:31;12.55;;;4.93;;
49376;SDS011;35253;34.688;33.040;2023-05-09T02:51:56;7.88;;;3.88;;
49376;SDS011;35253;34.688;33.040;2023-05-09T02:54:22;7.57;;;3.88;;
49376;SDS011;35253;34.688;33.040;2023-05-09T02:56:48;4.90;;;3.13;;
49376;SDS011;35253;34.688;33.040;2023-05-09T02:59:14;9.65;;;3.80;;
49376;SDS011;35253;34.688;33.040;2023-05-09T03:01:40;6.40;;;4.25;;
49376;SDS011;35253;34.688;33.040;2023-05-09T03:04:05;5.60;;;3.40;;
49376;SDS011;35253;34.688;33.040;2023-05-09T03:06:31;8.13;;;4.55;;
49376;SDS011;35253;34.688;33.040;2023-05-09T03:08:57;12.07;;;4.65;;
49376;SDS011;35253;34.688;33.040;2023-05-09T03:11:22;5.40;;;4.10;;
49376;SDS011;35253;34.688;33.040;2023-05-09T03:13:48;4.20;;;3.60;;
49376;SDS011;35253;34.688;33.040;2023-05-09T03:16:16;4.93;;;4.07;;
49376;SDS011;35253;34.688;33.040;2023-05-09T03:18:42;5.90;;;3.70;;
49376;SDS011;35253;34.688;33.040;2023-05-09T03:21:08;5.20;;;4.68;;
49376;SDS011;35253;34.688;33.040;2023-05-09T03:23:34;6.57;;;4.25;;
49376;SDS011;35253;34.688;33.040;2023-05-09T03:25:59;8.35;;;4.47;;
49376;SDS011;35253;34.688;33.040;2023-05-09T03:28:26;9.88;;;4.88;;
49376;SDS011;35253;34.688;33.040;2023-05-09T03:30:52;6.18;;;4.15;;
49376;SDS011;35253;34.688;33.040;2023-05-09T03:33:18;5.88;;;4.60;;
49376;SDS011;35253;34.688;33.040;2023-05-09T03:35:44;7.07;;;4.80;;
49376;SDS011;35253;34.688;33.040;2023-05-09T03:38:09;9.18;;;6.78;;
49376;SDS011;35253;34.688;33.040;2023-05-09T03:40:35;15.52;;;6.07;;
49376;SDS011;35253;34.688;33.040;2023-05-09T03:43:01;11.68;;;6.85;;
49376;SDS011;35253;34.688;33.040;2023-05-09T03:45:27;8.25;;;5.93;;
49376;SDS011;35253;34.688;33.040;2023-05-09T03:47:52;10.27;;;6.88;;
49376;SDS011;35253;34.688;33.040;2023-05-09T03:50:18;10.73;;;6.03;;
49376;SDS011;35253;34.688;33.040;2023-05-09T03:52:44;8.63;;;6.00;;
49376;SDS011;35253;34.688;33.040;2023-05-09T03:55:10;8.23;;;5.97;;
49376;SDS011;35253;34.688;33.040;2023-05-09T03:57:36;10.93;;;5.68;;
49376;SDS011;35253;34.688;33.040;2023-05-09T04:00:02;7.72;;;5.68;;
49376;SDS011;35253;34.688;33.040;2023-05-09T04:04:57;12.80;;;7.15;;
49376;SDS011;35253;34.688;33.040;2023-05-09T04:07:24;14.40;;;7.78;;
49376;SDS011;35253;34.688;33.040;2023-05-09T04:09:50;11.98;;;8.65;;
49376;SDS011;35253;34.688;33.040;2023-05-09T04:12:16;11.55;;;6.72;;
49376;SDS011;35253;34.688;33.040;2023-05-09T04:14:42;9.25;;;6.28;;
49376;SDS011;35253;34.688;33.040;2023-05-09T04:17:08;15.43;;;7.63;;
49376;SDS011;35253;34.688;33.040;2023-05-09T04:19:34;11.48;;;7.78;;
49376;SDS011;35253;34.688;33.040;2023-05-09T04:22:00;9.30;;;6.53;;
49376;SDS011;35253;34.688;33.040;2023-05-09T04:24:25;6.78;;;6.03;;
49376;SDS011;35253;34.688;33.040;2023-05-09T04:26:51;12.57;;;7.28;;
49376;SDS011;35253;34.688;33.040;2023-05-09T04:29:18;11.70;;;7.75;;
49376;SDS011;35253;34.688;33.040;2023-05-09T04:31:44;11.95;;;7.50;;
49376;SDS011;35253;34.688;33.040;2023-05-09T04:34:10;12.20;;;8.07;;
49376;SDS011;35253;34.688;33.040;2023-05-09T04:36:35;13.65;;;7.60;;
49376;SDS011;35253;34.688;33.040;2023-05-09T04:39:01;10.20;;;7.47;;
49376;SDS011;35253;34.688;33.040;2023-05-09T04:41:29;11.07;;;7.82;;
49376;SDS011;35253;34.688;33.040;2023-05-09T04:43:55;12.82;;;8.63;;
49376;SDS011;35253;34.688;33.040;2023-05-09T04:46:20;9.88;;;7.15;;
49376;SDS011;35253;34.688;33.040;2023-05-09T04:48:46;16.92;;;9.05;;
49376;SDS011;35253;34.688;33.040;2023-05-09T04:51:12;10.15;;;6.88;;
49376;SDS011;35253;34.688;33.040;2023-05-09T04:53:37;11.38;;;7.10;;
49376;SDS011;35253;34.688;33.040;2023-05-09T04:56:03;9.65;;;8.38;;
49376;SDS011;35253;34.688;33.040;2023-05-09T04:58:29;11.65;;;7.20;;
49376;SDS011;35253;34.688;33.040;2023-05-09T05:00:56;13.75;;;8.18;;
49376;SDS011;35253;34.688;33.040;2023-05-09T05:03:22;13.90;;;7.75;;
49376;SDS011;35253;34.688;33.040;2023-05-09T05:05:47;12.18;;;8.90;;
49376;SDS011;35253;34.688;33.040;2023-05-09T05:08:13;11.93;;;8.30;;
49376;SDS011;35253;34.688;33.040;2023-05-09T05:10:39;12.13;;;8.40;;
49376;SDS011;35253;34.688;33.040;2023-05-09T05:13:04;12.63;;;7.78;;
49376;SDS011;35253;34.688;33.040;2023-05-09T05:15:31;16.50;;;9.35;;
49376;SDS011;35253;34.688;33.040;2023-05-09T05:17:56;15.15;;;8.80;;
49376;SDS011;35253;34.688;33.040;2023-05-09T05:20:22;13.73;;;9.35;;
49376;SDS011;35253;34.688;33.040;2023-05-09T05:22:48;9.90;;;8.07;;
49376;SDS011;35253;34.688;33.040;2023-05-09T05:25:13;14.88;;;8.70;;
49376;SDS011;35253;34.688;33.040;2023-05-09T05:27:41;12.43;;;8.60;;
49376;SDS011;35253;34.688;33.040;2023-05-09T05:30:07;10.65;;;7.20;;
49376;SDS011;35253;34.688;33.040;2023-05-09T05:32:33;9.40;;;7.60;;
49376;SDS011;35253;34.688;33.040;2023-05-09T05:34:59;11.73;;;7.65;;
49376;SDS011;35253;34.688;33.040;2023-05-09T05:37:26;13.15;;;7.75;;
49376;SDS011;35253;34.688;33.040;2023-05-09T05:39:52;11.07;;;7.30;;
49376;SDS011;35253;34.688;33.040;2023-05-09T05:42:18;8.43;;;6.78;;
49376;SDS011;35253;34.688;33.040;2023-05-09T05:44:44;10.50;;;6.60;;
49376;SDS011;35253;34.688;33.040;2023-05-09T05:47:09;11.57;;;6.43;;
49376;SDS011;35253;34.688;33.040;2023-05-09T05:49:35;10.15;;;7.03;;
49376;SDS011;35253;34.688;33.040;2023-05-09T05:52:01;10.02;;;6.78;;
49376;SDS011;35253;34.688;33.040;2023-05-09T05:54:27;15.13;;;7.50;;
49376;SDS011;35253;34.688;33.040;2023-05-09T05:56:52;10.45;;;7.22;;
49376;SDS011;35253;34.688;33.040;2023-05-09T05:59:18;11.35;;;7.53;;
49376;SDS011;35253;34.688;33.040;2023-05-09T06:01:44;8.35;;;6.95;;
49376;SDS011;35253;34.688;33.040;2023-05-09T06:04:09;14.43;;;8.00;;
49376;SDS011;35253;34.688;33.040;2023-05-09T06:06:35;11.25;;;7.80;;
49376;SDS011;35253;34.688;33.040;2023-05-09T06:09:01;8.45;;;7.05;;
49376;SDS011;35253;34.688;33.040;2023-05-09T06:11:27;9.77;;;7.10;;
49376;SDS011;35253;34.688;33.040;2023-05-09T06:13:52;10.40;;;6.88;;
49376;SDS011;35253;34.688;33.040;2023-05-09T06:16:18;9.80;;;6.95;;
49376;SDS011;35253;34.688;33.040;2023-05-09T06:18:45;9.85;;;7.13;;
49376;SDS011;35253;34.688;33.040;2023-05-09T06:21:11;9.60;;;6.38;;
49376;SDS011;35253;34.688;33.040;2023-05-09T06:23:37;8.65;;;6.45;;
49376;SDS011;35253;34.688;33.040;2023-05-09T06:26:02;12.80;;;8.40;;
49376;SDS011;35253;34.688;33.040;2023-05-09T06:28:28;9.98;;;6.85;;
49376;SDS011;35253;34.688;33.040;2023-05-09T06:30:54;12.55;;;8.43;;
49376;SDS011;35253;34.688;33.040;2023-05-09T06:33:20;9.55;;;7.15;;
49376;SDS011;35253;34.688;33.040;2023-05-09T06:35:46;7.28;;;6.57;;
49376;SDS011;35253;34.688;33.040;2023-05-09T06:38:12;8.93;;;5.53;;
49376;SDS011;35253;34.688;33.040;2023-05-09T06:40:38;7.30;;;6.10;;
49376;SDS011;35253;34.688;33.040;2023-05-09T06:43:04;10.60;;;6.07;;
49376;SDS011;35253;34.688;33.040;2023-05-09T06:45:29;11.30;;;6.90;;
49376;SDS011;35253;34.688;33.040;2023-05-09T06:47:55;14.38;;;7.05;;
49376;SDS011;35253;34.688;33.040;2023-05-09T06:50:21;8.32;;;5.75;;
49376;SDS011;35253;34.688;33.040;2023-05-09T06:52:47;8.02;;;5.55;;
49376;SDS011;35253;34.688;33.040;2023-05-09T06:55:12;8.70;;;4.80;;
49376;SDS011;35253;34.688;33.040;2023-05-09T06:57:38;8.70;;;6.43;;
49376;SDS011;35253;34.688;33.040;2023-05-09T07:00:05;13.88;;;6.80;;
49376;SDS011;35253;34.688;33.040;2023-05-09T07:02:31;10.27;;;6.50;;
49376;SDS011;35253;34.688;33.040;2023-05-09T07:04:57;11.93;;;5.80;;
49376;SDS011;35253;34.688;33.040;2023-05-09T07:07:23;9.70;;;5.75;;
49376;SDS011;35253;34.688;33.040;2023-05-09T07:09:48;8.50;;;5.50;;
49376;SDS011;35253;34.688;33.040;2023-05-09T07:12:14;8.00;;;5.85;;
49376;SDS011;35253;34.688;33.040;2023-05-09T07:14:40;11.23;;;6.53;;
49376;SDS011;35253;34.688;33.040;2023-05-09T07:17:06;8.40;;;5.88;;
49376;SDS011;35253;34.688;33.040;2023-05-09T07:19:33;10.18;;;5.63;;
49376;SDS011;35253;34.688;33.040;2023-05-09T07:21:58;9.68;;;5.35;;
49376;SDS011;35253;34.688;33.040;2023-05-09T07:24:24;10.80;;;5.97;;
49376;SDS011;35253;34.688;33.040;2023-05-09T07:26:50;10.50;;;6.47;;
49376;SDS011;35253;34.688;33.040;2023-05-09T07:29:16;10.05;;;7.07;;
49376;SDS011;35253;34.688;33.040;2023-05-09T07:31:43;9.90;;;5.32;;
49376;SDS011;35253;34.688;33.040;2023-05-09T07:34:08;9.35;;;7.03;;
49376;SDS011;35253;34.688;33.040;2023-05-09T07:36:34;11.45;;;6.70;;
49376;SDS011;35253;34.688;33.040;2023-05-09T07:39:01;8.00;;;6.25;;
49376;SDS011;35253;34.688;33.040;2023-05-09T07:41:29;9.30;;;6.28;;
49376;SDS011;35253;34.688;33.040;2023-05-09T07:43:55;8.55;;;7.00;;
49376;SDS011;35253;34.688;33.040;2023-05-09T07:46:21;9.40;;;6.95;;
49376;SDS011;35253;34.688;33.040;2023-05-09T07:48:47;10.98;;;6.75;;
49376;SDS011;35253;34.688;33.040;2023-05-09T07:51:12;9.43;;;7.10;;
49376;SDS011;35253;34.688;33.040;2023-05-09T07:53:38;8.73;;;6.68;;
49376;SDS011;35253;34.688;33.040;2023-05-09T07:56:04;14.95;;;7.53;;
49376;SDS011;35253;34.688;33.040;2023-05-09T07:58:31;7.82;;;6.80;;
49376;SDS011;35253;34.688;33.040;2023-05-09T08:00:57;10.27;;;6.15;;
49376;SDS011;35253;34.688;33.040;2023-05-09T08:03:23;9.65;;;6.95;;
49376;SDS011;35253;34.688;33.040;2023-05-09T08:05:51;8.57;;;6.80;;
49376;SDS011;35253;34.688;33.040;2023-05-09T08:08:22;9.68;;;6.85;;
49376;SDS011;35253;34.688;33.040;2023-05-09T08:10:47;8.70;;;7.13;;
49376;SDS011;35253;34.688;33.040;2023-05-09T08:13:13;10.77;;;7.15;;
49376;SDS011;35253;34.688;33.040;2023-05-09T08:15:39;11.48;;;6.40;;
49376;SDS011;35253;34.688;33.040;2023-05-09T08:18:05;12.63;;;7.35;;
49376;SDS011;35253;34.688;33.040;2023-05-09T08:20:30;9.13;;;7.25;;
49376;SDS011;35253;34.688;33.040;2023-05-09T08:22:58;11.38;;;6.35;;
49376;SDS011;35253;34.688;33.040;2023-05-09T08:25:24;8.95;;;6.57;;
49376;SDS011;35253;34.688;33.040;2023-05-09T08:27:50;10.32;;;7.40;;
49376;SDS011;35253;34.688;33.040;2023-05-09T08:30:15;13.25;;;6.82;;
49376;SDS011;35253;34.688;33.040;2023-05-09T08:32:41;8.65;;;7.03;;
49376;SDS011;35253;34.688;33.040;2023-05-09T08:35:07;12.50;;;8.48;;
49376;SDS011;35253;34.688;33.040;2023-05-09T08:37:34;9.82;;;8.82;;
49376;SDS011;35253;34.688;33.040;2023-05-09T08:40:00;12.60;;;8.07;;
49376;SDS011;35253;34.688;33.040;2023-05-09T08:42:28;8.68;;;7.70;;
49376;SDS011;35253;34.688;33.040;2023-05-09T08:44:56;11.35;;;8.00;;
49376;SDS011;35253;34.688;33.040;2023-05-09T08:47:22;13.98;;;7.80;;
49376;SDS011;35253;34.688;33.040;2023-05-09T08:49:49;11.18;;;7.63;;
49376;SDS011;35253;34.688;33.040;2023-05-09T08:52:16;10.80;;;7.80;;
49376;SDS011;35253;34.688;33.040;2023-05-09T08:54:43;10.57;;;9.15;;
49376;SDS011;35253;34.688;33.040;2023-05-09T08:57:09;12.45;;;9.70;;
49376;SDS011;35253;34.688;33.040;2023-05-09T08:59:34;13.23;;;7.10;;
49376;SDS011;35253;34.688;33.040;2023-05-09T09:02:04;12.95;;;7.60;;
49376;SDS011;35253;34.688;33.040;2023-05-09T09:04:31;12.77;;;7.22;;
49376;SDS011;35253;34.688;33.040;2023-05-09T09:06:57;10.13;;;7.72;;
49376;SDS011;35253;34.688;33.040;2023-05-09T09:09:24;14.68;;;8.55;;
49376;SDS011;35253;34.688;33.040;2023-05-09T09:11:50;16.77;;;7.93;;
49376;SDS011;35253;34.688;33.040;2023-05-09T09:14:22;12.68;;;8.00;;
49376;SDS011;35253;34.688;33.040;2023-05-09T09:16:51;9.52;;;7.68;;
49376;SDS011;35253;34.688;33.040;2023-05-09T09:19:20;13.18;;;8.90;;
49376;SDS011;35253;34.688;33.040;2023-05-09T09:21:49;11.52;;;7.72;;
49376;SDS011;35253;34.688;33.040;2023-05-09T09:24:20;13.48;;;8.13;;
49376;SDS011;35253;34.688;33.040;2023-05-09T09:26:47;14.77;;;7.85;;
49376;SDS011;35253;34.688;33.040;2023-05-09T09:29:15;11.23;;;7.13;;
49376;SDS011;35253;34.688;33.040;2023-05-09T09:31:45;7.35;;;5.38;;
49376;SDS011;35253;34.688;33.040;2023-05-09T09:34:12;11.20;;;8.95;;
49376;SDS011;35253;34.688;33.040;2023-05-09T09:36:45;7.25;;;6.13;;
49376;SDS011;35253;34.688;33.040;2023-05-09T09:39:12;8.90;;;6.95;;
49376;SDS011;35253;34.688;33.040;2023-05-09T09:41:39;11.50;;;6.97;;
49376;SDS011;35253;34.688;33.040;2023-05-09T09:44:12;13.82;;;7.70;;
49376;SDS011;35253;34.688;33.040;2023-05-09T09:46:49;15.45;;;9.38;;
49376;SDS011;35253;34.688;33.040;2023-05-09T09:49:17;10.98;;;8.63;;
49376;SDS011;35253;34.688;33.040;2023-05-09T09:51:44;10.02;;;8.40;;
49376;SDS011;35253;34.688;33.040;2023-05-09T09:54:17;13.32;;;6.55;;
49376;SDS011;35253;34.688;33.040;2023-05-09T09:56:44;11.75;;;7.63;;
49376;SDS011;35253;34.688;33.040;2023-05-09T09:59:12;8.48;;;6.13;;
49376;SDS011;35253;34.688;33.040;2023-05-09T10:02:15;9.85;;;6.25;;
49376;SDS011;35253;34.688;33.040;2023-05-09T10:04:37;8.30;;;6.50;;
49376;SDS011;35253;34.688;33.040;2023-05-09T10:07:06;11.53;;;7.83;;
49376;SDS011;35253;34.688;33.040;2023-05-09T10:09:34;18.45;;;12.07;;
49376;SDS011;35253;34.688;33.040;2023-05-09T10:12:05;8.48;;;6.03;;
49376;SDS011;35253;34.688;33.040;2023-05-09T10:14:33;10.95;;;7.82;;
49376;SDS011;35253;34.688;33.040;2023-05-09T10:17:00;10.35;;;6.85;;
49376;SDS011;35253;34.688;33.040;2023-05-09T10:19:28;8.18;;;6.28;;
49376;SDS011;35253;34.688;33.040;2023-05-09T10:22:00;8.32;;;5.63;;
49376;SDS011;35253;34.688;33.040;2023-05-09T10:24:29;9.77;;;6.30;;
49376;SDS011;35253;34.688;33.040;2023-05-09T10:27:02;8.85;;;6.13;;
49376;SDS011;35253;34.688;33.040;2023-05-09T10:29:33;14.65;;;8.95;;
49376;SDS011;35253;34.688;33.040;2023-05-09T10:32:04;9.02;;;8.13;;
49376;SDS011;35253;34.688;33.040;2023-05-09T10:34:41;13.35;;;9.82;;
49376;SDS011;35253;34.688;33.040;2023-05-09T10:37:11;15.27;;;12.20;;
49376;SDS011;35253;34.688;33.040;2023-05-09T10:39:38;11.93;;;8.98;;
49376;SDS011;35253;34.688;33.040;2023-05-09T10:42:06;15.88;;;12.18;;
49376;SDS011;35253;34.688;33.040;2023-05-09T10:44:32;9.98;;;8.38;;
49376;SDS011;35253;34.688;33.040;2023-05-09T10:46:59;11.60;;;8.15;;
49376;SDS011;35253;34.688;33.040;2023-05-09T10:52:01;8.95;;;6.30;;
49376;SDS011;35253;34.688;33.040;2023-05-09T10:54:27;11.80;;;9.05;;
49376;SDS011;35253;34.688;33.040;2023-05-09T10:56:56;13.50;;;9.30;;
49376;SDS011;35253;34.688;33.040;2023-05-09T10:59:35;9.02;;;7.03;;
49376;SDS011;35253;34.688;33.040;2023-05-09T11:02:02;10.35;;;5.55;;
49376;SDS011;35253;34.688;33.040;2023-05-09T11:04:29;9.25;;;5.20;;
49376;SDS011;35253;34.688;33.040;2023-05-09T11:06:56;6.97;;;4.32;;
49376;SDS011;35253;34.688;33.040;2023-05-09T11:09:24;4.70;;;3.60;;
49376;SDS011;35253;34.688;33.040;2023-05-09T11:11:52;7.55;;;4.80;;
49376;SDS011;35253;34.688;33.040;2023-05-09T11:17:04;7.22;;;4.00;;
49376;SDS011;35253;34.688;33.040;2023-05-09T11:20:19;9.05;;;4.03;;
49376;SDS011;35253;34.688;33.040;2023-05-09T11:22:40;8.05;;;3.97;;
49376;SDS011;35253;34.688;33.040;2023-05-09T11:25:10;8.00;;;3.15;;
49376;SDS011;35253;34.688;33.040;2023-05-09T11:30:12;4.85;;;3.97;;
49376;SDS011;35253;34.688;33.040;2023-05-09T11:32:41;9.82;;;5.25;;
49376;SDS011;35253;34.688;33.040;2023-05-09T11:35:20;7.22;;;4.20;;
49376;SDS011;35253;34.688;33.040;2023-05-09T11:40:15;4.60;;;4.20;;
49376;SDS011;35253;34.688;33.040;2023-05-09T11:42:43;5.90;;;4.22;;
49376;SDS011;35253;34.688;33.040;2023-05-09T11:45:14;8.93;;;6.32;;
49376;SDS011;35253;34.688;33.040;2023-05-09T11:47:40;11.15;;;5.20;;
49376;SDS011;35253;34.688;33.040;2023-05-09T11:50:10;7.05;;;4.55;;
49376;SDS011;35253;34.688;33.040;2023-05-09T11:52:37;18.27;;;6.35;;
49376;SDS011;35253;34.688;33.040;2023-05-09T11:55:06;18.85;;;8.05;;
49376;SDS011;35253;34.688;33.040;2023-05-09T11:57:39;18.58;;;8.07;;
49376;SDS011;35253;34.688;33.040;2023-05-09T12:00:06;9.85;;;5.53;;
49376;SDS011;35253;34.688;33.040;2023-05-09T12:02:35;12.40;;;5.60;;
49376;SDS011;35253;34.688;33.040;2023-05-09T12:05:11;7.10;;;4.90;;
49376;SDS011;35253;34.688;33.040;2023-05-09T12:07:38;6.40;;;4.07;;
49376;SDS011;35253;34.688;33.040;2023-05-09T12:10:09;8.02;;;4.28;;
49376;SDS011;35253;34.688;33.040;2023-05-09T12:12:46;9.48;;;5.03;;
49376;SDS011;35253;34.688;33.040;2023-05-09T12:15:16;7.32;;;3.75;;
49376;SDS011;35253;34.688;33.040;2023-05-09T12:17:42;8.02;;;3.42;;
49376;SDS011;35253;34.688;33.040;2023-05-09T12:20:10;4.95;;;3.40;;
49376;SDS011;35253;34.688;33.040;2023-05-09T12:22:36;5.15;;;3.72;;
49376;SDS011;35253;34.688;33.040;2023-05-09T12:25:06;6.50;;;3.35;;
49376;SDS011;35253;34.688;33.040;2023-05-09T12:27:34;4.15;;;2.05;;
49376;SDS011;35253;34.688;33.040;2023-05-09T12:30:05;3.03;;;2.05;;
49376;SDS011;35253;34.688;33.040;2023-05-09T12:32:36;10.70;;;5.68;;
49376;SDS011;35253;34.688;33.040;2023-05-09T12:35:05;4.88;;;2.80;;
49376;SDS011;35253;34.688;33.040;2023-05-09T12:37:32;5.30;;;2.85;;
49376;SDS011;35253;34.688;33.040;2023-05-09T12:40:02;7.38;;;3.67;;
49376;SDS011;35253;34.688;33.040;2023-05-09T12:42:41;2.28;;;2.08;;
49376;SDS011;35253;34.688;33.040;2023-05-09T12:45:09;7.32;;;3.88;;
49376;SDS011;35253;34.688;33.040;2023-05-09T12:47:35;7.13;;;4.07;;
49376;SDS011;35253;34.688;33.040;2023-05-09T12:50:04;4.55;;;3.30;;
49376;SDS011;35253;34.688;33.040;2023-05-09T12:52:34;4.88;;;2.35;;
49376;SDS011;35253;34.688;33.040;2023-05-09T12:55:07;8.05;;;2.42;;
49376;SDS011;35253;34.688;33.040;2023-05-09T12:57:35;5.95;;;3.03;;
49376;SDS011;35253;34.688;33.040;2023-05-09T13:00:03;3.55;;;2.30;;
49376;SDS011;35253;34.688;33.040;2023-05-09T13:02:37;2.87;;;1.87;;
49376;SDS011;35253;34.688;33.040;2023-05-09T13:05:09;3.97;;;2.13;;
49376;SDS011;35253;34.688;33.040;2023-05-09T13:07:40;6.60;;;4.70;;
49376;SDS011;35253;34.688;33.040;2023-05-09T13:10:10;26.38;;;13.13;;
49376;SDS011;35253;34.688;33.040;2023-05-09T13:12:39;10.77;;;3.75;;
49376;SDS011;35253;34.688;33.040;2023-05-09T13:15:09;4.40;;;2.33;;
49376;SDS011;35253;34.688;33.040;2023-05-09T13:17:35;3.55;;;2.30;;
49376;SDS011;35253;34.688;33.040;2023-05-09T13:20:02;2.80;;;2.53;;
49376;SDS011;35253;34.688;33.040;2023-05-09T13:22:29;4.25;;;1.92;;
49376;SDS011;35253;34.688;33.040;2023-05-09T13:24:55;3.40;;;1.92;;
49376;SDS011;35253;34.688;33.040;2023-05-09T13:27:21;3.20;;;2.10;;
49376;SDS011;35253;34.688;33.040;2023-05-09T13:29:47;5.45;;;2.15;;
49376;SDS011;35253;34.688;33.040;2023-05-09T13:32:15;5.80;;;2.38;;
49376;SDS011;35253;34.688;33.040;2023-05-09T13:34:49;3.92;;;2.03;;
49376;SDS011;35253;34.688;33.040;2023-05-09T13:37:15;7.07;;;3.15;;
49376;SDS011;35253;34.688;33.040;2023-05-09T13:39:41;5.38;;;2.47;;
49376;SDS011;35253;34.688;33.040;2023-05-09T13:42:07;5.03;;;3.38;;
49376;SDS011;35253;34.688;33.040;2023-05-09T13:44:33;8.18;;;3.53;;
49376;SDS011;35253;34.688;33.040;2023-05-09T13:46:58;8.90;;;4.10;;
49376;SDS011;35253;34.688;33.040;2023-05-09T13:49:24;4.35;;;3.42;;
49376;SDS011;35253;34.688;33.040;2023-05-09T13:51:52;6.47;;;3.80;;
49376;SDS011;35253;34.688;33.040;2023-05-09T13:54:18;7.15;;;4.93;;
49376;SDS011;35253;34.688;33.040;2023-05-09T13:56:45;6.32;;;4.05;;
49376;SDS011;35253;34.688;33.040;2023-05-09T13:59:11;8.35;;;3.47;;
49376;SDS011;35253;34.688;33.040;2023-05-09T14:01:39;12.15;;;7.40;;
49376;SDS011;35253;34.688;33.040;2023-05-09T14:04:05;15.00;;;8.60;;
49376;SDS011;35253;34.688;33.040;2023-05-09T14:06:30;6.55;;;4.38;;
49376;SDS011;35253;34.688;33.040;2023-05-09T14:08:57;7.97;;;4.75;;
49376;SDS011;35253;34.688;33.040;2023-05-09T14:11:23;6.43;;;3.92;;
49376;SDS011;35253;34.688;33.040;2023-05-09T14:13:52;5.85;;;4.20;;
49376;SDS011;35253;34.688;33.040;2023-05-09T14:16:18;7.53;;;5.35;;
49376;SDS011;35253;34.688;33.040;2023-05-09T14:18:44;6.22;;;3.88;;
49376;SDS011;35253;34.688;33.040;2023-05-09T14:21:10;5.63;;;4.40;;
49376;SDS011;35253;34.688;33.040;2023-05-09T14:23:36;7.97;;;4.70;;
49376;SDS011;35253;34.688;33.040;2023-05-09T14:26:01;6.57;;;4.28;;
49376;SDS011;35253;34.688;33.040;2023-05-09T14:28:28;8.43;;;4.60;;
49376;SDS011;35253;34.688;33.040;2023-05-09T14:30:53;8.77;;;4.40;;
49376;SDS011;35253;34.688;33.040;2023-05-09T14:33:19;3.80;;;3.10;;
49376;SDS011;35253;34.688;33.040;2023-05-09T14:35:45;5.88;;;3.47;;
49376;SDS011;35253;34.688;33.040;2023-05-09T14:38:11;9.40;;;4.68;;
49376;SDS011;35253;34.688;33.040;2023-05-09T14:40:37;6.05;;;3.22;;
49376;SDS011;35253;34.688;33.040;2023-05-09T14:43:03;8.77;;;5.63;;
49376;SDS011;35253;34.688;33.040;2023-05-09T14:45:30;11.45;;;4.95;;
49376;SDS011;35253;34.688;33.040;2023-05-09T14:47:59;5.95;;;4.45;;
49376;SDS011;35253;34.688;33.040;2023-05-09T14:50:28;10.70;;;6.20;;
49376;SDS011;35253;34.688;33.040;2023-05-09T14:52:54;5.63;;;3.70;;